sensor_id;sensor_type;location;lat;lon;timestamp;P1;durP1;ratioP1;P2;durP2;ratioP2
67508;SDS011;54354;44.724;11.284;2023-03-01T00:01:23;24.25;;;17.92;;
67508;SDS011;54354;44.724;11.284;2023-03-01T00:03:51;20.15;;;17.63;;
67508;SDS011;54354;44.724;11.284;2023-03-01T00:06:18;20.98;;;17.30;;
67508;SDS011;54354;44.724;11.284;2023-03-01T00:08:44;20.42;;;17.15;;
67508;SDS011;54354;44.724;11.284;2023-03-01T00:11:14;23.85;;;17.58;;
67508;SDS011;54354;44.724;11.284;2023-03-01T00:13:41;22.30;;;17.50;;
67508;SDS011;54354;44.724;11.284;2023-03-01T00:16:08;24.27;;;18.10;;
67508;SDS011;54354;44.724;11.284;2023-03-01T00:18:36;23.33;;;17.52;;
67508;SDS011;54354;44.724;11.284;2023-03-01T00:21:02;23.63;;;17.15;;
67508;SDS011;54354;44.724;11.284;2023-03-01T00:23:28;19.25;;;16.90;;
67508;SDS011;54354;44.724;11.284;2023-03-01T00:25:54;22.90;;;17.42;;
67508;SDS011;54354;44.724;11.284;2023-03-01T00:28:20;25.05;;;17.02;;
67508;SDS011;54354;44.724;11.284;2023-03-01T00:30:46;20.95;;;17.27;;
67508;SDS011;54354;44.724;11.284;2023-03-01T00:33:12;22.02;;;17.70;;
67508;SDS011;54354;44.724;11.284;2023-03-01T00:35:37;24.40;;;16.42;;
67508;SDS011;54354;44.724;11.284;2023-03-01T00:38:04;20.15;;;16.67;;
67508;SDS011;54354;44.724;11.284;2023-03-01T00:40:31;20.60;;;16.55;;
67508;SDS011;54354;44.724;11.284;2023-03-01T00:42:59;22.92;;;17.30;;
67508;SDS011;54354;44.724;11.284;2023-03-01T00:45:26;20.58;;;16.95;;
67508;SDS011;54354;44.724;11.284;2023-03-01T00:47:52;21.35;;;17.15;;
67508;SDS011;54354;44.724;11.284;2023-03-01T00:50:18;20.48;;;17.20;;
67508;SDS011;54354;44.724;11.284;2023-03-01T00:52:44;24.10;;;16.42;;
67508;SDS011;54354;44.724;11.284;2023-03-01T00:55:10;22.08;;;17.80;;
67508;SDS011;54354;44.724;11.284;2023-03-01T00:57:36;19.83;;;16.27;;
67508;SDS011;54354;44.724;11.284;2023-03-01T01:00:04;17.45;;;15.60;;
67508;SDS011;54354;44.724;11.284;2023-03-01T01:02:32;18.42;;;16.48;;
67508;SDS011;54354;44.724;11.284;2023-03-01T01:04:59;20.95;;;16.05;;
67508;SDS011;54354;44.724;11.284;2023-03-01T01:07:25;22.02;;;17.38;;
67508;SDS011;54354;44.724;11.284;2023-03-01T01:09:50;18.60;;;16.50;;
67508;SDS011;54354;44.724;11.284;2023-03-01T01:12:16;21.30;;;16.20;;
67508;SDS011;54354;44.724;11.284;2023-03-01T01:14:41;21.00;;;17.48;;
67508;SDS011;54354;44.724;11.284;2023-03-01T01:17:08;20.95;;;15.68;;
67508;SDS011;54354;44.724;11.284;2023-03-01T01:19:33;20.90;;;17.25;;
67508;SDS011;54354;44.724;11.284;2023-03-01T01:21:59;18.00;;;16.13;;
67508;SDS011;54354;44.724;11.284;2023-03-01T01:24:24;22.85;;;16.50;;
67508;SDS011;54354;44.724;11.284;2023-03-01T01:26:50;17.33;;;15.45;;
67508;SDS011;54354;44.724;11.284;2023-03-01T01:29:15;20.65;;;16.63;;
67508;SDS011;54354;44.724;11.284;2023-03-01T01:31:41;18.10;;;15.82;;
67508;SDS011;54354;44.724;11.284;2023-03-01T01:34:09;19.48;;;16.00;;
67508;SDS011;54354;44.724;11.284;2023-03-01T01:36:39;19.98;;;15.68;;
67508;SDS011;54354;44.724;11.284;2023-03-01T01:39:04;21.92;;;15.70;;
67508;SDS011;54354;44.724;11.284;2023-03-01T01:41:31;17.70;;;15.80;;
67508;SDS011;54354;44.724;11.284;2023-03-01T01:46:45;17.38;;;15.48;;
67508;SDS011;54354;44.724;11.284;2023-03-01T01:49:46;18.77;;;15.98;;
67508;SDS011;54354;44.724;11.284;2023-03-01T01:57:22;18.85;;;15.65;;
67508;SDS011;54354;44.724;11.284;2023-03-01T01:59:51;22.80;;;15.85;;
67508;SDS011;54354;44.724;11.284;2023-03-01T02:02:20;23.77;;;16.17;;
67508;SDS011;54354;44.724;11.284;2023-03-01T02:04:46;23.70;;;16.35;;
67508;SDS011;54354;44.724;11.284;2023-03-01T02:09:46;21.60;;;16.02;;
67508;SDS011;54354;44.724;11.284;2023-03-01T02:12:13;20.17;;;15.32;;
67508;SDS011;54354;44.724;11.284;2023-03-01T02:14:42;24.38;;;16.50;;
67508;SDS011;54354;44.724;11.284;2023-03-01T02:17:09;23.45;;;16.15;;
67508;SDS011;54354;44.724;11.284;2023-03-01T02:22:32;22.65;;;16.52;;
67508;SDS011;54354;44.724;11.284;2023-03-01T02:27:31;21.75;;;16.48;;
67508;SDS011;54354;44.724;11.284;2023-03-01T02:30:02;21.80;;;15.98;;
67508;SDS011;54354;44.724;11.284;2023-03-01T02:32:27;22.48;;;16.58;;
67508;SDS011;54354;44.724;11.284;2023-03-01T02:34:54;19.02;;;16.63;;
67508;SDS011;54354;44.724;11.284;2023-03-01T02:37:20;18.35;;;15.63;;
67508;SDS011;54354;44.724;11.284;2023-03-01T02:39:54;22.27;;;16.38;;
67508;SDS011;54354;44.724;11.284;2023-03-01T02:42:30;20.50;;;16.13;;
67508;SDS011;54354;44.724;11.284;2023-03-01T02:44:59;18.60;;;16.55;;
67508;SDS011;54354;44.724;11.284;2023-03-01T02:47:24;20.30;;;16.55;;
67508;SDS011;54354;44.724;11.284;2023-03-01T02:49:50;21.98;;;16.30;;
67508;SDS011;54354;44.724;11.284;2023-03-01T02:52:23;17.08;;;15.10;;
67508;SDS011;54354;44.724;11.284;2023-03-01T02:55:28;21.13;;;15.68;;
67508;SDS011;54354;44.724;11.284;2023-03-01T02:57:47;19.52;;;16.52;;
67508;SDS011;54354;44.724;11.284;2023-03-01T03:00:18;18.90;;;15.93;;
67508;SDS011;54354;44.724;11.284;2023-03-01T03:02:47;18.27;;;15.33;;
67508;SDS011;54354;44.724;11.284;2023-03-01T03:05:19;20.67;;;17.73;;
67508;SDS011;54354;44.724;11.284;2023-03-01T03:07:48;20.02;;;16.80;;
67508;SDS011;54354;44.724;11.284;2023-03-01T03:10:19;20.23;;;16.15;;
67508;SDS011;54354;44.724;11.284;2023-03-01T03:12:50;18.92;;;16.10;;
67508;SDS011;54354;44.724;11.284;2023-03-01T03:15:18;18.80;;;16.27;;
67508;SDS011;54354;44.724;11.284;2023-03-01T03:17:43;18.80;;;16.73;;
67508;SDS011;54354;44.724;11.284;2023-03-01T03:20:10;20.08;;;16.95;;
67508;SDS011;54354;44.724;11.284;2023-03-01T03:22:38;17.70;;;15.80;;
67508;SDS011;54354;44.724;11.284;2023-03-01T03:25:05;19.70;;;16.65;;
67508;SDS011;54354;44.724;11.284;2023-03-01T03:30:01;20.13;;;15.77;;
67508;SDS011;54354;44.724;11.284;2023-03-01T03:32:27;20.55;;;16.48;;
67508;SDS011;54354;44.724;11.284;2023-03-01T03:34:52;19.23;;;17.13;;
67508;SDS011;54354;44.724;11.284;2023-03-01T03:37:18;18.58;;;16.58;;
67508;SDS011;54354;44.724;11.284;2023-03-01T03:40:12;20.58;;;17.20;;
67508;SDS011;54354;44.724;11.284;2023-03-01T03:42:40;21.98;;;17.17;;
67508;SDS011;54354;44.724;11.284;2023-03-01T03:45:06;20.33;;;17.52;;
67508;SDS011;54354;44.724;11.284;2023-03-01T03:47:32;19.70;;;17.42;;
67508;SDS011;54354;44.724;11.284;2023-03-01T03:49:57;24.35;;;17.92;;
67508;SDS011;54354;44.724;11.284;2023-03-01T03:52:23;22.63;;;18.17;;
67508;SDS011;54354;44.724;11.284;2023-03-01T03:54:48;23.73;;;18.42;;
67508;SDS011;54354;44.724;11.284;2023-03-01T03:57:14;22.13;;;18.15;;
67508;SDS011;54354;44.724;11.284;2023-03-01T03:59:39;23.55;;;18.27;;
67508;SDS011;54354;44.724;11.284;2023-03-01T04:02:05;22.67;;;18.65;;
67508;SDS011;54354;44.724;11.284;2023-03-01T04:04:34;22.02;;;18.52;;
67508;SDS011;54354;44.724;11.284;2023-03-01T04:06:59;22.27;;;18.08;;
67508;SDS011;54354;44.724;11.284;2023-03-01T04:09:25;21.67;;;17.80;;
67508;SDS011;54354;44.724;11.284;2023-03-01T04:11:50;21.88;;;17.60;;
67508;SDS011;54354;44.724;11.284;2023-03-01T04:14:16;20.80;;;18.33;;
67508;SDS011;54354;44.724;11.284;2023-03-01T04:16:42;22.00;;;18.60;;
67508;SDS011;54354;44.724;11.284;2023-03-01T04:19:07;22.10;;;17.33;;
67508;SDS011;54354;44.724;11.284;2023-03-01T04:21:34;23.27;;;17.95;;
67508;SDS011;54354;44.724;11.284;2023-03-01T04:24:01;20.48;;;17.35;;
67508;SDS011;54354;44.724;11.284;2023-03-01T04:26:28;25.77;;;19.17;;
67508;SDS011;54354;44.724;11.284;2023-03-01T04:28:54;22.05;;;17.98;;
67508;SDS011;54354;44.724;11.284;2023-03-01T04:31:20;21.67;;;18.23;;
67508;SDS011;54354;44.724;11.284;2023-03-01T04:36:20;21.65;;;17.85;;
67508;SDS011;54354;44.724;11.284;2023-03-01T04:38:47;22.65;;;17.98;;
67508;SDS011;54354;44.724;11.284;2023-03-01T04:41:13;23.83;;;18.90;;
67508;SDS011;54354;44.724;11.284;2023-03-01T04:43:40;20.63;;;17.63;;
67508;SDS011;54354;44.724;11.284;2023-03-01T04:46:07;23.23;;;18.58;;
67508;SDS011;54354;44.724;11.284;2023-03-01T04:48:34;23.70;;;18.25;;
67508;SDS011;54354;44.724;11.284;2023-03-01T04:51:02;25.95;;;18.63;;
67508;SDS011;54354;44.724;11.284;2023-03-01T04:53:28;21.98;;;17.55;;
67508;SDS011;54354;44.724;11.284;2023-03-01T04:55:55;22.40;;;17.50;;
67508;SDS011;54354;44.724;11.284;2023-03-01T04:58:24;21.35;;;18.23;;
67508;SDS011;54354;44.724;11.284;2023-03-01T05:00:52;24.05;;;18.40;;
67508;SDS011;54354;44.724;11.284;2023-03-01T05:03:18;21.00;;;17.83;;
67508;SDS011;54354;44.724;11.284;2023-03-01T05:05:45;23.50;;;18.15;;
67508;SDS011;54354;44.724;11.284;2023-03-01T05:08:12;23.52;;;18.05;;
67508;SDS011;54354;44.724;11.284;2023-03-01T05:10:52;20.23;;;16.65;;
67508;SDS011;54354;44.724;11.284;2023-03-01T05:13:18;21.35;;;17.17;;
67508;SDS011;54354;44.724;11.284;2023-03-01T05:15:49;21.70;;;17.20;;
67508;SDS011;54354;44.724;11.284;2023-03-01T05:18:19;19.27;;;17.17;;
67508;SDS011;54354;44.724;11.284;2023-03-01T05:20:45;24.13;;;17.80;;
67508;SDS011;54354;44.724;11.284;2023-03-01T05:23:10;21.30;;;16.98;;
67508;SDS011;54354;44.724;11.284;2023-03-01T05:25:36;21.85;;;16.77;;
67508;SDS011;54354;44.724;11.284;2023-03-01T05:28:05;20.35;;;16.33;;
67508;SDS011;54354;44.724;11.284;2023-03-01T05:30:35;21.83;;;17.23;;
67508;SDS011;54354;44.724;11.284;2023-03-01T05:33:01;23.20;;;16.40;;
67508;SDS011;54354;44.724;11.284;2023-03-01T05:35:26;22.10;;;17.15;;
67508;SDS011;54354;44.724;11.284;2023-03-01T05:37:52;21.98;;;16.25;;
67508;SDS011;54354;44.724;11.284;2023-03-01T05:40:19;20.58;;;16.77;;
67508;SDS011;54354;44.724;11.284;2023-03-01T05:42:50;18.90;;;16.63;;
67508;SDS011;54354;44.724;11.284;2023-03-01T05:45:18;20.33;;;16.25;;
67508;SDS011;54354;44.724;11.284;2023-03-01T05:47:45;22.40;;;17.58;;
67508;SDS011;54354;44.724;11.284;2023-03-01T05:52:47;21.38;;;17.10;;
67508;SDS011;54354;44.724;11.284;2023-03-01T05:55:15;24.80;;;17.27;;
67508;SDS011;54354;44.724;11.284;2023-03-01T05:57:45;23.02;;;17.63;;
67508;SDS011;54354;44.724;11.284;2023-03-01T06:00:11;21.90;;;17.20;;
67508;SDS011;54354;44.724;11.284;2023-03-01T06:02:39;22.15;;;17.63;;
67508;SDS011;54354;44.724;11.284;2023-03-01T06:05:05;21.17;;;16.38;;
67508;SDS011;54354;44.724;11.284;2023-03-01T06:07:32;20.83;;;16.35;;
67508;SDS011;54354;44.724;11.284;2023-03-01T06:09:58;22.52;;;17.75;;
67508;SDS011;54354;44.724;11.284;2023-03-01T06:12:23;22.48;;;17.83;;
67508;SDS011;54354;44.724;11.284;2023-03-01T06:14:49;22.65;;;17.17;;
67508;SDS011;54354;44.724;11.284;2023-03-01T06:17:15;21.48;;;17.27;;
67508;SDS011;54354;44.724;11.284;2023-03-01T06:19:40;21.50;;;17.33;;
67508;SDS011;54354;44.724;11.284;2023-03-01T06:22:06;21.90;;;17.90;;
67508;SDS011;54354;44.724;11.284;2023-03-01T06:24:32;21.77;;;17.58;;
67508;SDS011;54354;44.724;11.284;2023-03-01T06:26:58;20.80;;;17.23;;
67508;SDS011;54354;44.724;11.284;2023-03-01T06:29:23;23.40;;;17.40;;
67508;SDS011;54354;44.724;11.284;2023-03-01T06:31:49;19.27;;;15.85;;
67508;SDS011;54354;44.724;11.284;2023-03-01T06:34:15;22.25;;;17.33;;
67508;SDS011;54354;44.724;11.284;2023-03-01T06:36:40;22.80;;;18.15;;
67508;SDS011;54354;44.724;11.284;2023-03-01T06:39:06;20.33;;;16.60;;
67508;SDS011;54354;44.724;11.284;2023-03-01T06:41:32;23.33;;;17.80;;
67508;SDS011;54354;44.724;11.284;2023-03-01T06:43:59;21.35;;;16.50;;
67508;SDS011;54354;44.724;11.284;2023-03-01T06:46:25;23.38;;;17.02;;
67508;SDS011;54354;44.724;11.284;2023-03-01T06:48:50;24.15;;;17.50;;
67508;SDS011;54354;44.724;11.284;2023-03-01T06:51:16;23.02;;;17.75;;
67508;SDS011;54354;44.724;11.284;2023-03-01T06:53:42;20.67;;;16.73;;
67508;SDS011;54354;44.724;11.284;2023-03-01T06:56:07;21.13;;;17.00;;
67508;SDS011;54354;44.724;11.284;2023-03-01T06:58:33;21.30;;;17.45;;
67508;SDS011;54354;44.724;11.284;2023-03-01T07:00:58;22.40;;;17.67;;
67508;SDS011;54354;44.724;11.284;2023-03-01T07:03:24;20.65;;;16.65;;
67508;SDS011;54354;44.724;11.284;2023-03-01T07:05:49;20.73;;;16.50;;
67508;SDS011;54354;44.724;11.284;2023-03-01T07:08:17;22.35;;;16.90;;
67508;SDS011;54354;44.724;11.284;2023-03-01T07:10:44;20.75;;;16.10;;
67508;SDS011;54354;44.724;11.284;2023-03-01T07:13:09;19.40;;;15.98;;
67508;SDS011;54354;44.724;11.284;2023-03-01T07:15:35;19.48;;;16.60;;
67508;SDS011;54354;44.724;11.284;2023-03-01T07:18:01;20.02;;;16.05;;
67508;SDS011;54354;44.724;11.284;2023-03-01T07:20:26;21.48;;;16.73;;
67508;SDS011;54354;44.724;11.284;2023-03-01T07:22:52;20.17;;;16.00;;
67508;SDS011;54354;44.724;11.284;2023-03-01T07:25:19;23.48;;;17.05;;
67508;SDS011;54354;44.724;11.284;2023-03-01T07:27:54;19.85;;;16.42;;
67508;SDS011;54354;44.724;11.284;2023-03-01T07:30:20;23.73;;;16.30;;
67508;SDS011;54354;44.724;11.284;2023-03-01T07:32:46;23.45;;;16.02;;
67508;SDS011;54354;44.724;11.284;2023-03-01T07:35:11;24.95;;;16.58;;
67508;SDS011;54354;44.724;11.284;2023-03-01T07:37:37;21.48;;;16.23;;
67508;SDS011;54354;44.724;11.284;2023-03-01T07:40:02;18.73;;;15.32;;
67508;SDS011;54354;44.724;11.284;2023-03-01T07:42:28;21.17;;;16.33;;
67508;SDS011;54354;44.724;11.284;2023-03-01T07:44:54;21.65;;;15.63;;
67508;SDS011;54354;44.724;11.284;2023-03-01T07:47:19;17.95;;;15.65;;
67508;SDS011;54354;44.724;11.284;2023-03-01T07:49:45;19.73;;;15.15;;
67508;SDS011;54354;44.724;11.284;2023-03-01T07:52:11;21.60;;;15.52;;
67508;SDS011;54354;44.724;11.284;2023-03-01T07:54:37;17.30;;;14.65;;
67508;SDS011;54354;44.724;11.284;2023-03-01T07:57:03;20.20;;;15.60;;
67508;SDS011;54354;44.724;11.284;2023-03-01T07:59:28;20.58;;;15.65;;
67508;SDS011;54354;44.724;11.284;2023-03-01T08:01:57;19.10;;;15.38;;
67508;SDS011;54354;44.724;11.284;2023-03-01T08:04:23;18.83;;;14.75;;
67508;SDS011;54354;44.724;11.284;2023-03-01T08:06:52;19.48;;;14.70;;
67508;SDS011;54354;44.724;11.284;2023-03-01T08:09:18;16.00;;;13.82;;
67508;SDS011;54354;44.724;11.284;2023-03-01T08:11:44;18.33;;;14.30;;
67508;SDS011;54354;44.724;11.284;2023-03-01T08:14:09;19.02;;;14.05;;
67508;SDS011;54354;44.724;11.284;2023-03-01T08:16:38;18.55;;;14.20;;
67508;SDS011;54354;44.724;11.284;2023-03-01T08:19:08;19.33;;;13.95;;
67508;SDS011;54354;44.724;11.284;2023-03-01T08:21:35;21.02;;;14.13;;
67508;SDS011;54354;44.724;11.284;2023-03-01T08:24:02;19.80;;;13.88;;
67508;SDS011;54354;44.724;11.284;2023-03-01T08:26:28;18.20;;;13.93;;
67508;SDS011;54354;44.724;11.284;2023-03-01T08:28:53;18.83;;;14.13;;
67508;SDS011;54354;44.724;11.284;2023-03-01T08:31:20;16.85;;;14.05;;
67508;SDS011;54354;44.724;11.284;2023-03-01T08:33:46;19.08;;;13.18;;
67508;SDS011;54354;44.724;11.284;2023-03-01T08:36:20;18.00;;;14.07;;
67508;SDS011;54354;44.724;11.284;2023-03-01T08:38:52;17.77;;;14.40;;
67508;SDS011;54354;44.724;11.284;2023-03-01T08:41:18;18.35;;;14.20;;
67508;SDS011;54354;44.724;11.284;2023-03-01T08:43:44;19.02;;;14.25;;
67508;SDS011;54354;44.724;11.284;2023-03-01T08:46:11;18.90;;;13.52;;
67508;SDS011;54354;44.724;11.284;2023-03-01T08:48:36;17.85;;;13.82;;
67508;SDS011;54354;44.724;11.284;2023-03-01T08:51:10;18.67;;;13.82;;
67508;SDS011;54354;44.724;11.284;2023-03-01T08:53:36;18.92;;;13.98;;
67508;SDS011;54354;44.724;11.284;2023-03-01T08:56:02;19.17;;;13.82;;
67508;SDS011;54354;44.724;11.284;2023-03-01T08:58:29;18.45;;;13.55;;
67508;SDS011;54354;44.724;11.284;2023-03-01T09:00:55;21.08;;;15.32;;
67508;SDS011;54354;44.724;11.284;2023-03-01T09:03:22;19.42;;;14.73;;
67508;SDS011;54354;44.724;11.284;2023-03-01T09:05:49;19.55;;;15.57;;
67508;SDS011;54354;44.724;11.284;2023-03-01T09:08:15;19.42;;;13.95;;
67508;SDS011;54354;44.724;11.284;2023-03-01T09:10:41;19.48;;;14.65;;
67508;SDS011;54354;44.724;11.284;2023-03-01T09:13:07;17.25;;;14.65;;
67508;SDS011;54354;44.724;11.284;2023-03-01T09:15:32;17.00;;;14.68;;
67508;SDS011;54354;44.724;11.284;2023-03-01T09:17:58;19.77;;;14.85;;
67508;SDS011;54354;44.724;11.284;2023-03-01T09:20:24;21.55;;;15.00;;
67508;SDS011;54354;44.724;11.284;2023-03-01T09:22:50;18.83;;;14.82;;
67508;SDS011;54354;44.724;11.284;2023-03-01T09:25:15;20.58;;;15.05;;
67508;SDS011;54354;44.724;11.284;2023-03-01T09:27:41;20.75;;;15.05;;
67508;SDS011;54354;44.724;11.284;2023-03-01T09:30:07;18.27;;;14.98;;
67508;SDS011;54354;44.724;11.284;2023-03-01T09:32:34;21.65;;;15.30;;
67508;SDS011;54354;44.724;11.284;2023-03-01T09:35:00;20.48;;;15.25;;
67508;SDS011;54354;44.724;11.284;2023-03-01T09:37:32;20.83;;;15.82;;
67508;SDS011;54354;44.724;11.284;2023-03-01T09:39:59;20.00;;;15.68;;
67508;SDS011;54354;44.724;11.284;2023-03-01T09:42:25;22.13;;;15.77;;
67508;SDS011;54354;44.724;11.284;2023-03-01T09:44:58;19.55;;;15.80;;
67508;SDS011;54354;44.724;11.284;2023-03-01T09:47:28;24.83;;;17.38;;
67508;SDS011;54354;44.724;11.284;2023-03-01T09:52:43;30.33;;;18.73;;
67508;SDS011;54354;44.724;11.284;2023-03-01T09:55:14;26.95;;;18.80;;
67508;SDS011;54354;44.724;11.284;2023-03-01T10:00:20;27.58;;;18.92;;
67508;SDS011;54354;44.724;11.284;2023-03-01T10:03:01;26.25;;;18.92;;
67508;SDS011;54354;44.724;11.284;2023-03-01T10:08:42;23.02;;;18.90;;
67508;SDS011;54354;44.724;11.284;2023-03-01T10:11:19;24.88;;;18.63;;
67508;SDS011;54354;44.724;11.284;2023-03-01T10:13:52;24.80;;;18.85;;
67508;SDS011;54354;44.724;11.284;2023-03-01T10:16:33;24.00;;;19.35;;
67508;SDS011;54354;44.724;11.284;2023-03-01T10:19:03;24.48;;;18.90;;
67508;SDS011;54354;44.724;11.284;2023-03-01T10:21:30;26.05;;;19.90;;
67508;SDS011;54354;44.724;11.284;2023-03-01T10:23:59;23.05;;;19.17;;
67508;SDS011;54354;44.724;11.284;2023-03-01T10:29:42;28.80;;;20.30;;
67508;SDS011;54354;44.724;11.284;2023-03-01T10:32:09;24.15;;;19.38;;
67508;SDS011;54354;44.724;11.284;2023-03-01T10:34:36;25.95;;;20.20;;
67508;SDS011;54354;44.724;11.284;2023-03-01T10:37:12;25.25;;;20.27;;
67508;SDS011;54354;44.724;11.284;2023-03-01T10:40:04;27.80;;;21.23;;
67508;SDS011;54354;44.724;11.284;2023-03-01T10:42:45;27.23;;;20.33;;
67508;SDS011;54354;44.724;11.284;2023-03-01T10:47:44;25.90;;;20.70;;
67508;SDS011;54354;44.724;11.284;2023-03-01T10:50:20;26.30;;;21.15;;
67508;SDS011;54354;44.724;11.284;2023-03-01T10:53:00;30.70;;;21.30;;
67508;SDS011;54354;44.724;11.284;2023-03-01T10:58:20;26.52;;;21.02;;
67508;SDS011;54354;44.724;11.284;2023-03-01T11:03:24;28.38;;;21.45;;
67508;SDS011;54354;44.724;11.284;2023-03-01T11:06:19;28.20;;;21.15;;
67508;SDS011;54354;44.724;11.284;2023-03-01T11:08:48;31.20;;;21.92;;
67508;SDS011;54354;44.724;11.284;2023-03-01T11:11:25;28.45;;;21.33;;
67508;SDS011;54354;44.724;11.284;2023-03-01T11:18:58;31.17;;;22.60;;
67508;SDS011;54354;44.724;11.284;2023-03-01T11:21:25;29.20;;;23.02;;
67508;SDS011;54354;44.724;11.284;2023-03-01T11:23:53;28.70;;;22.45;;
67508;SDS011;54354;44.724;11.284;2023-03-01T11:26:18;26.63;;;21.27;;
67508;SDS011;54354;44.724;11.284;2023-03-01T11:28:45;32.72;;;23.50;;
67508;SDS011;54354;44.724;11.284;2023-03-01T11:31:16;29.50;;;22.33;;
67508;SDS011;54354;44.724;11.284;2023-03-01T11:36:33;30.75;;;22.55;;
67508;SDS011;54354;44.724;11.284;2023-03-01T11:39:48;32.53;;;23.67;;
67508;SDS011;54354;44.724;11.284;2023-03-01T11:42:05;30.98;;;22.83;;
67508;SDS011;54354;44.724;11.284;2023-03-01T11:44:33;29.65;;;22.20;;
67508;SDS011;54354;44.724;11.284;2023-03-01T11:54:57;29.20;;;22.70;;
67508;SDS011;54354;44.724;11.284;2023-03-01T11:57:49;28.55;;;22.40;;
67508;SDS011;54354;44.724;11.284;2023-03-01T12:08:48;31.30;;;23.80;;
67508;SDS011;54354;44.724;11.284;2023-03-01T12:14:41;33.08;;;24.50;;
67508;SDS011;54354;44.724;11.284;2023-03-01T12:17:25;32.35;;;23.55;;
67508;SDS011;54354;44.724;11.284;2023-03-01T12:20:17;35.78;;;25.00;;
67508;SDS011;54354;44.724;11.284;2023-03-01T12:39:28;28.30;;;23.13;;
67508;SDS011;54354;44.724;11.284;2023-03-01T12:47:23;28.48;;;24.35;;
67508;SDS011;54354;44.724;11.284;2023-03-01T12:50:01;28.45;;;23.92;;
67508;SDS011;54354;44.724;11.284;2023-03-01T12:52:35;27.40;;;23.08;;
67508;SDS011;54354;44.724;11.284;2023-03-01T12:55:08;28.33;;;22.98;;
67508;SDS011;54354;44.724;11.284;2023-03-01T12:58:02;31.80;;;24.45;;
67508;SDS011;54354;44.724;11.284;2023-03-01T13:12:50;25.58;;;22.35;;
67508;SDS011;54354;44.724;11.284;2023-03-01T13:18:02;26.00;;;21.83;;
67508;SDS011;54354;44.724;11.284;2023-03-01T13:20:50;29.08;;;22.70;;
67508;SDS011;54354;44.724;11.284;2023-03-01T13:30:59;24.50;;;20.02;;
67508;SDS011;54354;44.724;11.284;2023-03-01T13:35:52;25.77;;;20.95;;
67508;SDS011;54354;44.724;11.284;2023-03-01T13:41:16;27.00;;;20.77;;
67508;SDS011;54354;44.724;11.284;2023-03-01T13:44:11;22.77;;;19.48;;
67508;SDS011;54354;44.724;11.284;2023-03-01T13:46:38;22.52;;;19.90;;
67508;SDS011;54354;44.724;11.284;2023-03-01T13:49:03;23.63;;;19.50;;
67508;SDS011;54354;44.724;11.284;2023-03-01T13:51:29;21.92;;;18.58;;
67508;SDS011;54354;44.724;11.284;2023-03-01T13:53:55;22.13;;;19.20;;
67508;SDS011;54354;44.724;11.284;2023-03-01T13:56:26;24.85;;;19.95;;
67508;SDS011;54354;44.724;11.284;2023-03-01T13:58:55;20.90;;;18.15;;
67508;SDS011;54354;44.724;11.284;2023-03-01T14:03:52;21.70;;;19.15;;
67508;SDS011;54354;44.724;11.284;2023-03-01T14:06:21;23.33;;;20.33;;
67508;SDS011;54354;44.724;11.284;2023-03-01T14:08:52;23.38;;;20.40;;
67508;SDS011;54354;44.724;11.284;2023-03-01T14:17:05;23.23;;;19.05;;
67508;SDS011;54354;44.724;11.284;2023-03-01T14:19:41;23.67;;;19.20;;
67508;SDS011;54354;44.724;11.284;2023-03-01T14:24:37;20.50;;;18.25;;
67508;SDS011;54354;44.724;11.284;2023-03-01T14:27:09;23.38;;;20.67;;
67508;SDS011;54354;44.724;11.284;2023-03-01T14:29:38;25.10;;;20.92;;
67508;SDS011;54354;44.724;11.284;2023-03-01T14:32:21;23.65;;;21.05;;
67508;SDS011;54354;44.724;11.284;2023-03-01T14:34:49;25.98;;;21.50;;
67508;SDS011;54354;44.724;11.284;2023-03-01T14:37:34;24.55;;;20.77;;
67508;SDS011;54354;44.724;11.284;2023-03-01T14:40:02;22.55;;;20.00;;
67508;SDS011;54354;44.724;11.284;2023-03-01T14:42:36;24.45;;;20.55;;
67508;SDS011;54354;44.724;11.284;2023-03-01T14:45:02;26.85;;;22.13;;
67508;SDS011;54354;44.724;11.284;2023-03-01T14:47:32;25.48;;;20.77;;
67508;SDS011;54354;44.724;11.284;2023-03-01T14:50:05;23.70;;;20.95;;
67508;SDS011;54354;44.724;11.284;2023-03-01T14:52:34;22.65;;;19.77;;
67508;SDS011;54354;44.724;11.284;2023-03-01T14:55:05;22.35;;;19.58;;
67508;SDS011;54354;44.724;11.284;2023-03-01T14:57:42;25.45;;;21.27;;
67508;SDS011;54354;44.724;11.284;2023-03-01T15:00:10;29.02;;;22.25;;
67508;SDS011;54354;44.724;11.284;2023-03-01T15:02:42;24.63;;;21.80;;
67508;SDS011;54354;44.724;11.284;2023-03-01T15:05:09;25.23;;;20.98;;
67508;SDS011;54354;44.724;11.284;2023-03-01T15:07:37;25.35;;;21.30;;
67508;SDS011;54354;44.724;11.284;2023-03-01T15:10:05;26.00;;;21.73;;
67508;SDS011;54354;44.724;11.284;2023-03-01T15:12:39;27.63;;;21.60;;
67508;SDS011;54354;44.724;11.284;2023-03-01T15:17:59;28.35;;;22.85;;
67508;SDS011;54354;44.724;11.284;2023-03-01T15:20:31;27.00;;;22.90;;
67508;SDS011;54354;44.724;11.284;2023-03-01T15:23:01;27.40;;;23.17;;
67508;SDS011;54354;44.724;11.284;2023-03-01T15:25:37;25.17;;;22.00;;
67508;SDS011;54354;44.724;11.284;2023-03-01T15:28:18;27.15;;;22.45;;
67508;SDS011;54354;44.724;11.284;2023-03-01T15:30:45;26.92;;;22.20;;
67508;SDS011;54354;44.724;11.284;2023-03-01T15:33:18;26.00;;;22.10;;
67508;SDS011;54354;44.724;11.284;2023-03-01T15:35:49;28.30;;;22.45;;
67508;SDS011;54354;44.724;11.284;2023-03-01T15:38:33;28.98;;;23.23;;
67508;SDS011;54354;44.724;11.284;2023-03-01T15:41:21;28.67;;;23.17;;
67508;SDS011;54354;44.724;11.284;2023-03-01T15:43:58;26.17;;;21.20;;
67508;SDS011;54354;44.724;11.284;2023-03-01T15:46:26;26.60;;;22.98;;
67508;SDS011;54354;44.724;11.284;2023-03-01T15:49:17;25.90;;;22.50;;
67508;SDS011;54354;44.724;11.284;2023-03-01T15:51:46;25.85;;;21.05;;
67508;SDS011;54354;44.724;11.284;2023-03-01T15:54:15;29.45;;;22.63;;
67508;SDS011;54354;44.724;11.284;2023-03-01T15:56:43;27.70;;;22.90;;
67508;SDS011;54354;44.724;11.284;2023-03-01T15:59:09;26.40;;;23.05;;
67508;SDS011;54354;44.724;11.284;2023-03-01T16:01:38;26.75;;;22.63;;
67508;SDS011;54354;44.724;11.284;2023-03-01T16:04:04;25.35;;;22.48;;
67508;SDS011;54354;44.724;11.284;2023-03-01T16:06:29;26.02;;;22.58;;
67508;SDS011;54354;44.724;11.284;2023-03-01T16:08:55;30.23;;;23.50;;
67508;SDS011;54354;44.724;11.284;2023-03-01T16:11:20;29.02;;;23.00;;
67508;SDS011;54354;44.724;11.284;2023-03-01T16:13:46;31.75;;;22.90;;
67508;SDS011;54354;44.724;11.284;2023-03-01T16:16:12;27.98;;;22.25;;
67508;SDS011;54354;44.724;11.284;2023-03-01T16:18:42;26.05;;;21.80;;
67508;SDS011;54354;44.724;11.284;2023-03-01T16:21:11;27.88;;;22.80;;
67508;SDS011;54354;44.724;11.284;2023-03-01T16:23:42;28.80;;;22.85;;
67508;SDS011;54354;44.724;11.284;2023-03-01T16:26:09;30.92;;;22.48;;
67508;SDS011;54354;44.724;11.284;2023-03-01T16:28:35;28.83;;;22.40;;
67508;SDS011;54354;44.724;11.284;2023-03-01T16:31:01;28.30;;;23.30;;
67508;SDS011;54354;44.724;11.284;2023-03-01T16:33:26;28.30;;;23.52;;